createdAt,value
2023-04-21T00:00:19.777Z,15.51
2023-04-21T00:00:51.205Z,15.51
2023-04-21T00:01:22.628Z,15.51
2023-04-21T00:01:54.096Z,15.51
2023-04-21T00:02:25.598Z,15.50
2023-04-21T00:02:57.216Z,15.50
2023-04-21T00:03:28.949Z,15.49
2023-04-21T00:04:00.690Z,15.49
2023-04-21T00:04:32.269Z,15.50
2023-04-21T00:05:04.164Z,15.49
2023-04-21T00:05:35.783Z,15.49
2023-04-21T00:06:07.241Z,15.50
2023-04-21T00:06:38.644Z,15.49
2023-04-21T00:07:10.081Z,15.49
2023-04-21T00:07:41.492Z,15.49
2023-04-21T00:08:12.907Z,15.48
2023-04-21T00:08:44.348Z,15.49
2023-04-21T00:09:15.800Z,15.50
2023-04-21T00:09:47.222Z,15.50
2023-04-21T00:10:18.621Z,15.50
2023-04-21T00:10:50.035Z,15.49
2023-04-21T00:11:21.441Z,15.49
2023-04-21T00:11:52.849Z,15.47
2023-04-21T00:12:24.294Z,15.48
2023-04-21T00:12:55.705Z,15.47
2023-04-21T00:13:27.126Z,15.48
2023-04-21T00:13:58.533Z,15.47
2023-04-21T00:14:29.943Z,15.47
2023-04-21T00:15:01.395Z,15.47
2023-04-21T00:15:32.794Z,15.47
2023-04-21T00:16:04.266Z,15.47
2023-04-21T00:16:35.715Z,15.47
2023-04-21T00:17:07.238Z,15.47
2023-04-21T00:17:38.693Z,15.47
2023-04-21T00:18:10.180Z,15.47
2023-04-21T00:18:41.683Z,15.47
2023-04-21T00:19:13.096Z,15.46
2023-04-21T00:19:44.528Z,15.46
2023-04-21T00:20:15.971Z,15.48
2023-04-21T00:20:47.384Z,15.47
2023-04-21T00:21:18.785Z,15.46
2023-04-21T00:21:50.191Z,15.46
2023-04-21T00:22:21.598Z,15.47
2023-04-21T00:22:53.005Z,15.46
2023-04-21T00:23:24.414Z,15.47
2023-04-21T00:23:55.811Z,15.48
2023-04-21T00:24:27.226Z,15.47
2023-04-21T00:24:58.637Z,15.47
2023-04-21T00:25:30.095Z,15.47
2023-04-21T00:26:01.516Z,15.47
2023-04-21T00:26:32.905Z,15.47
2023-04-21T00:27:04.298Z,15.46
2023-04-21T00:27:35.709Z,15.46
2023-04-21T00:28:07.141Z,15.46
2023-04-21T00:28:38.547Z,15.45
2023-04-21T00:29:09.971Z,15.46
2023-04-21T00:29:41.404Z,15.46
2023-04-21T00:30:12.820Z,15.45
2023-04-21T00:30:44.214Z,15.47
2023-04-21T00:31:15.663Z,15.46
2023-04-21T00:31:47.161Z,15.46
2023-04-21T00:32:18.615Z,15.46
2023-04-21T00:32:50.055Z,15.45
2023-04-21T00:33:21.530Z,15.46
2023-04-21T00:33:52.923Z,15.45
2023-04-21T00:34:24.309Z,15.45
2023-04-21T00:34:55.727Z,15.46
2023-04-21T00:35:27.127Z,15.46
2023-04-21T00:35:58.531Z,15.45
2023-04-21T00:36:29.966Z,15.44
2023-04-21T00:37:01.354Z,15.44
2023-04-21T00:37:32.769Z,15.44
2023-04-21T00:38:04.181Z,15.45
2023-04-21T00:38:35.614Z,15.45
2023-04-21T00:39:07.072Z,15.44
2023-04-21T00:39:38.493Z,15.44
2023-04-21T00:40:09.962Z,15.44
2023-04-21T00:40:41.388Z,15.45
2023-04-21T00:41:12.813Z,15.45
2023-04-21T00:41:44.304Z,15.46
2023-04-21T00:42:15.722Z,15.46
2023-04-21T00:42:47.119Z,15.44
2023-04-21T00:43:18.530Z,15.44
2023-04-21T00:43:49.941Z,15.46
2023-04-21T00:44:21.378Z,15.44
2023-04-21T00:44:52.785Z,15.44
2023-04-21T00:45:24.203Z,15.46
2023-04-21T00:45:55.655Z,15.44
2023-04-21T00:46:27.073Z,15.44
2023-04-21T00:46:58.595Z,15.44
2023-04-21T00:47:30.073Z,15.45
2023-04-21T00:48:01.522Z,15.44
2023-04-21T00:48:32.959Z,15.44
2023-04-21T00:49:04.390Z,15.44
2023-04-21T00:49:35.801Z,15.44
2023-04-21T00:50:07.192Z,15.44
2023-04-21T00:50:38.599Z,15.44
2023-04-21T00:51:10.006Z,15.44
2023-04-21T00:51:41.395Z,15.43
2023-04-21T00:52:12.810Z,15.43
2023-04-21T00:52:44.207Z,15.43
2023-04-21T00:53:15.609Z,15.44
2023-04-21T00:53:46.998Z,15.43
2023-04-21T00:54:18.440Z,15.44
2023-04-21T00:54:49.862Z,15.44
2023-04-21T00:55:21.299Z,15.44
2023-04-21T00:55:52.684Z,15.44
2023-04-21T00:56:24.102Z,15.43
2023-04-21T00:56:55.517Z,15.44
2023-04-21T00:57:26.946Z,15.44
2023-04-21T00:57:58.371Z,15.43
2023-04-21T00:58:29.758Z,15.43
2023-04-21T00:59:01.164Z,15.44
2023-04-21T00:59:32.565Z,15.43
2023-04-21T01:00:03.975Z,15.43
2023-04-21T01:00:35.407Z,15.42
2023-04-21T01:01:06.868Z,15.42
2023-04-21T01:01:38.354Z,15.43
2023-04-21T01:02:09.854Z,15.43
2023-04-21T01:02:41.519Z,15.42
2023-04-21T01:03:13.384Z,15.43
2023-04-21T01:03:45.139Z,15.42
2023-04-21T01:04:16.627Z,15.41
2023-04-21T01:04:48.048Z,15.42
2023-04-21T01:05:19.463Z,15.42
2023-04-21T01:05:50.859Z,15.42
2023-04-21T01:06:22.266Z,15.41
2023-04-21T01:06:53.701Z,15.41
2023-04-21T01:07:25.097Z,15.42
2023-04-21T01:07:56.525Z,15.41
2023-04-21T01:08:27.938Z,15.41
2023-04-21T01:08:59.340Z,15.41
2023-04-21T01:09:30.738Z,15.41
2023-04-21T01:10:02.181Z,15.41
2023-04-21T01:10:33.641Z,15.42
2023-04-21T01:11:05.066Z,15.42
2023-04-21T01:11:36.480Z,15.41
2023-04-21T01:12:07.889Z,15.42
2023-04-21T01:12:39.329Z,15.42
2023-04-21T01:13:10.795Z,15.42
2023-04-21T01:13:42.192Z,15.41
2023-04-21T01:14:13.593Z,15.42
2023-04-21T01:14:44.991Z,15.41
2023-04-21T01:15:16.401Z,15.42
2023-04-21T01:15:47.802Z,15.43
2023-04-21T01:16:19.243Z,15.41
2023-04-21T01:16:50.703Z,15.42
2023-04-21T01:17:22.185Z,15.41
2023-04-21T01:17:53.660Z,15.41
2023-04-21T01:18:25.136Z,15.41
2023-04-21T01:18:56.552Z,15.41
2023-04-21T01:19:27.958Z,15.40
2023-04-21T01:19:59.376Z,15.41
2023-04-21T01:20:30.776Z,15.41
2023-04-21T01:21:02.198Z,15.40
2023-04-21T01:21:33.612Z,15.40
2023-04-21T01:22:05.021Z,15.40
2023-04-21T01:22:36.438Z,15.40
2023-04-21T01:23:07.857Z,15.40
2023-04-21T01:23:39.338Z,15.40
2023-04-21T01:24:10.750Z,15.40
2023-04-21T01:24:42.174Z,15.39
2023-04-21T01:25:13.579Z,15.40
2023-04-21T01:25:45.026Z,15.39
2023-04-21T01:26:16.421Z,15.40
2023-04-21T01:26:47.845Z,15.39
2023-04-21T01:27:19.267Z,15.39
2023-04-21T01:27:50.681Z,15.39
2023-04-21T01:28:22.080Z,15.39
2023-04-21T01:28:53.531Z,15.39
2023-04-21T01:29:24.939Z,15.39
2023-04-21T01:29:56.334Z,15.39
2023-04-21T01:30:27.746Z,15.39
2023-04-21T01:30:59.177Z,15.39
2023-04-21T01:31:30.661Z,15.39
2023-04-21T01:32:02.172Z,15.38
2023-04-21T01:32:33.690Z,15.38
2023-04-21T01:33:05.229Z,15.38
2023-04-21T01:33:36.704Z,15.38
2023-04-21T01:34:08.140Z,15.37
2023-04-21T01:34:39.545Z,15.38
2023-04-21T01:35:10.950Z,15.37
2023-04-21T01:35:42.336Z,15.37
2023-04-21T01:36:13.750Z,15.38
2023-04-21T01:36:45.158Z,15.37
2023-04-21T01:37:16.554Z,15.37
2023-04-21T01:37:47.952Z,15.37
2023-04-21T01:38:19.710Z,15.37
2023-04-21T01:38:51.199Z,15.37
2023-04-21T01:39:22.650Z,15.38
2023-04-21T01:39:54.062Z,15.37
2023-04-21T01:40:25.477Z,15.36
2023-04-21T01:40:56.865Z,15.37
2023-04-21T01:41:28.273Z,15.36
2023-04-21T01:41:59.674Z,15.37
2023-04-21T01:42:31.088Z,15.37
2023-04-21T01:43:02.517Z,15.36
2023-04-21T01:43:33.937Z,15.35
2023-04-21T01:44:05.332Z,15.36
2023-04-21T01:44:36.758Z,15.36
2023-04-21T01:45:08.177Z,15.36
2023-04-21T01:45:39.595Z,15.36
2023-04-21T01:46:11.054Z,15.35
2023-04-21T01:46:42.529Z,15.35
2023-04-21T01:47:13.935Z,15.35
2023-04-21T01:47:45.340Z,15.35
2023-04-21T01:48:16.828Z,15.35
2023-04-21T01:48:48.257Z,15.35
2023-04-21T01:49:19.877Z,15.36
2023-04-21T01:49:51.548Z,15.34
2023-04-21T01:50:22.993Z,15.35
2023-04-21T01:50:54.386Z,15.35
2023-04-21T01:51:25.808Z,15.35
2023-04-21T01:51:57.210Z,15.35
2023-04-21T01:52:28.621Z,15.35
2023-04-21T01:53:00.024Z,15.34
2023-04-21T01:53:31.451Z,15.33
2023-04-21T01:54:02.864Z,15.35
2023-04-21T01:54:34.251Z,15.34
2023-04-21T01:55:05.676Z,15.35
2023-04-21T01:55:37.132Z,15.34
2023-04-21T01:56:08.531Z,15.33
2023-04-21T01:56:39.931Z,15.34
2023-04-21T01:57:11.382Z,15.33
2023-04-21T01:57:42.873Z,15.33
2023-04-21T01:58:14.287Z,15.34
2023-04-21T01:58:45.695Z,15.33
2023-04-21T01:59:17.287Z,15.33
2023-04-21T01:59:48.822Z,15.33
2023-04-21T02:00:20.227Z,15.32
2023-04-21T02:00:51.660Z,15.31
2023-04-21T02:01:23.083Z,15.32
2023-04-21T02:01:54.571Z,15.33
2023-04-21T02:02:26.121Z,15.32
2023-04-21T02:02:57.769Z,15.32
2023-04-21T02:03:29.537Z,15.31
2023-04-21T02:04:01.255Z,15.32
2023-04-21T02:04:32.999Z,15.32
2023-04-21T02:05:04.571Z,15.32
2023-04-21T02:05:36.007Z,15.32
2023-04-21T02:06:07.400Z,15.32
2023-04-21T02:06:38.786Z,15.31
2023-04-21T02:07:10.197Z,15.31
2023-04-21T02:07:41.588Z,15.31
2023-04-21T02:08:12.979Z,15.32
2023-04-21T02:08:44.374Z,15.32
2023-04-21T02:09:15.792Z,15.31
2023-04-21T02:09:47.218Z,15.30
2023-04-21T02:10:18.622Z,15.30
2023-04-21T02:10:50.030Z,15.30
2023-04-21T02:11:21.470Z,15.29
2023-04-21T02:11:52.864Z,15.30
2023-04-21T02:12:24.253Z,15.30
2023-04-21T02:12:55.679Z,15.30
2023-04-21T02:13:27.110Z,15.31
2023-04-21T02:13:58.527Z,15.30
2023-04-21T02:14:29.958Z,15.29
2023-04-21T02:15:01.406Z,15.29
2023-04-21T02:15:32.850Z,15.29
2023-04-21T02:16:13.362Z,15.28
2023-04-21T02:16:45.725Z,15.29
2023-04-21T02:17:17.215Z,15.29
2023-04-21T02:17:48.660Z,15.28
2023-04-21T02:18:20.090Z,15.28
2023-04-21T02:18:51.505Z,15.28
2023-04-21T02:19:22.918Z,15.29
2023-04-21T02:19:54.328Z,15.29
2023-04-21T02:20:25.731Z,15.29
2023-04-21T02:20:57.152Z,15.29
2023-04-21T02:21:28.562Z,15.30
2023-04-21T02:22:00.003Z,15.29
2023-04-21T02:22:31.403Z,15.29
2023-04-21T02:23:02.827Z,15.29
2023-04-21T02:23:34.221Z,15.29
2023-04-21T02:24:05.627Z,15.29
2023-04-21T02:24:37.031Z,15.28
2023-04-21T02:25:08.425Z,15.29
2023-04-21T02:25:39.838Z,15.29
2023-04-21T02:26:11.246Z,15.29
2023-04-21T02:26:42.642Z,15.28
2023-04-21T02:27:14.097Z,15.28
2023-04-21T02:27:45.525Z,15.27
2023-04-21T02:28:16.938Z,15.28
2023-04-21T02:28:48.344Z,15.27
2023-04-21T02:29:19.856Z,15.27
2023-04-21T02:29:51.380Z,15.27
2023-04-21T02:30:22.783Z,15.27
2023-04-21T02:30:54.243Z,15.27
2023-04-21T02:31:25.872Z,15.27
2023-04-21T02:32:05.324Z,15.26
2023-04-21T02:32:45.710Z,15.26
2023-04-21T02:33:17.238Z,15.26
2023-04-21T02:33:48.693Z,15.26
2023-04-21T02:34:20.095Z,15.26
2023-04-21T02:34:51.487Z,15.24
2023-04-21T02:35:22.899Z,15.24
2023-04-21T02:35:54.310Z,15.25
2023-04-21T02:36:25.743Z,15.25
2023-04-21T02:36:57.131Z,15.25
2023-04-21T02:37:28.543Z,15.24
2023-04-21T02:37:59.965Z,15.24
2023-04-21T02:38:31.373Z,15.25
2023-04-21T02:39:02.787Z,15.25
2023-04-21T02:39:34.210Z,15.23
2023-04-21T02:40:05.708Z,15.25
2023-04-21T02:40:37.110Z,15.25
2023-04-21T02:41:08.506Z,15.24
2023-04-21T02:41:39.945Z,15.24
2023-04-21T02:42:11.334Z,15.24
2023-04-21T02:42:42.745Z,15.24
2023-04-21T02:43:14.164Z,15.23
2023-04-21T02:43:45.578Z,15.24
2023-04-21T02:44:16.995Z,15.24
2023-04-21T02:44:48.409Z,15.24
2023-04-21T02:45:19.810Z,15.24
2023-04-21T02:45:51.260Z,15.23
2023-04-21T02:46:22.749Z,15.24
2023-04-21T02:46:54.213Z,15.24
2023-04-21T02:47:25.712Z,15.23
2023-04-21T02:47:57.221Z,15.23
2023-04-21T02:48:28.722Z,15.23
2023-04-21T02:49:00.135Z,15.23
2023-04-21T02:49:31.535Z,15.23
2023-04-21T02:50:02.936Z,15.23
2023-04-21T02:50:34.353Z,15.22
2023-04-21T02:51:05.784Z,15.23
2023-04-21T02:51:37.203Z,15.22
2023-04-21T02:52:08.614Z,15.23
2023-04-21T02:52:40.000Z,15.22
2023-04-21T02:53:11.449Z,15.23
2023-04-21T02:53:42.898Z,15.22
2023-04-21T02:54:14.294Z,15.22
2023-04-21T02:54:45.698Z,15.22
2023-04-21T02:55:17.109Z,15.22
2023-04-21T02:55:48.526Z,15.21
2023-04-21T02:56:19.917Z,15.22
2023-04-21T02:56:51.347Z,15.21
2023-04-21T02:57:22.776Z,15.21
2023-04-21T02:57:54.199Z,15.22
2023-04-21T02:58:25.647Z,15.21
2023-04-21T02:58:57.129Z,15.21
2023-04-21T02:59:28.525Z,15.21
2023-04-21T02:59:59.955Z,15.20
2023-04-21T03:00:31.373Z,15.21
2023-04-21T03:01:02.889Z,15.21
2023-04-21T03:01:34.350Z,15.20
2023-04-21T03:02:05.798Z,15.19
2023-04-21T03:02:37.357Z,15.20
2023-04-21T03:03:09.059Z,15.19
2023-04-21T03:03:40.682Z,15.20
2023-04-21T03:04:12.294Z,15.19
2023-04-21T03:04:43.764Z,15.20
2023-04-21T03:05:15.182Z,15.20
2023-04-21T03:05:46.588Z,15.20
2023-04-21T03:06:18.014Z,15.18
2023-04-21T03:06:49.419Z,15.20
2023-04-21T03:07:20.813Z,15.20
2023-04-21T03:07:52.249Z,15.19
2023-04-21T03:08:23.661Z,15.20
2023-04-21T03:08:55.065Z,15.18
2023-04-21T03:09:26.501Z,15.17
2023-04-21T03:09:57.905Z,15.17
2023-04-21T03:10:29.300Z,15.17
2023-04-21T03:11:00.716Z,15.18
2023-04-21T03:11:32.123Z,15.17
2023-04-21T03:12:03.516Z,15.17
2023-04-21T03:12:34.915Z,15.17
2023-04-21T03:13:06.326Z,15.17
2023-04-21T03:13:37.785Z,15.18
2023-04-21T03:14:09.195Z,15.17
2023-04-21T03:14:40.591Z,15.17
2023-04-21T03:15:11.997Z,15.17
2023-04-21T03:15:43.387Z,15.18
2023-04-21T03:16:14.817Z,15.17
2023-04-21T03:16:46.262Z,15.17
2023-04-21T03:17:17.716Z,15.17
2023-04-21T03:17:49.200Z,15.16
2023-04-21T03:18:20.675Z,15.17
2023-04-21T03:18:52.100Z,15.17
2023-04-21T03:19:23.522Z,15.17
2023-04-21T03:19:54.928Z,15.16
2023-04-21T03:20:26.344Z,15.16
2023-04-21T03:20:57.762Z,15.16
2023-04-21T03:21:29.185Z,15.16
2023-04-21T03:22:00.608Z,15.16
2023-04-21T03:22:32.025Z,15.16
2023-04-21T03:23:03.482Z,15.16
2023-04-21T03:23:34.895Z,15.16
2023-04-21T03:24:06.338Z,15.16
2023-04-21T03:24:37.749Z,15.15
2023-04-21T03:25:09.146Z,15.15
2023-04-21T03:25:40.574Z,15.15
2023-04-21T03:26:14.913Z,15.15
2023-04-21T03:26:46.320Z,15.16
2023-04-21T03:27:17.717Z,15.15
2023-04-21T03:27:49.108Z,15.15
2023-04-21T03:28:20.519Z,15.15
2023-04-21T03:28:51.911Z,15.15
2023-04-21T03:29:23.342Z,15.14
2023-04-21T03:29:54.733Z,15.15
2023-04-21T03:30:26.141Z,15.14
2023-04-21T03:30:57.567Z,15.13
2023-04-21T03:31:29.062Z,15.14
2023-04-21T03:32:00.569Z,15.14
2023-04-21T03:32:32.025Z,15.14
2023-04-21T03:33:03.563Z,15.14
2023-04-21T03:33:34.998Z,15.14
2023-04-21T03:34:06.394Z,15.14
2023-04-21T03:34:37.808Z,15.14
2023-04-21T03:35:09.233Z,15.14
2023-04-21T03:35:40.639Z,15.13
2023-04-21T03:36:12.032Z,15.13
2023-04-21T03:36:43.434Z,15.12
2023-04-21T03:37:14.825Z,15.13
2023-04-21T03:37:46.252Z,15.13
2023-04-21T03:38:17.667Z,15.13
2023-04-21T03:38:49.078Z,15.14
2023-04-21T03:39:20.793Z,15.13
2023-04-21T03:39:52.318Z,15.12
2023-04-21T03:40:23.726Z,15.12
2023-04-21T03:40:55.134Z,15.13
2023-04-21T03:41:26.532Z,15.13
2023-04-21T03:41:58.046Z,15.14
2023-04-21T03:42:29.445Z,15.13
2023-04-21T03:43:00.857Z,15.13
2023-04-21T03:43:32.267Z,15.12
2023-04-21T03:44:03.682Z,15.12
2023-04-21T03:44:35.106Z,15.12
2023-04-21T03:45:06.522Z,15.12
2023-04-21T03:45:38.071Z,15.11
2023-04-21T03:46:09.550Z,15.12
2023-04-21T03:46:40.987Z,15.11
2023-04-21T03:47:12.452Z,15.11
2023-04-21T03:47:43.892Z,15.11
2023-04-21T03:48:15.313Z,15.12
2023-04-21T03:48:46.737Z,15.11
2023-04-21T03:49:18.184Z,15.12
2023-04-21T03:49:49.686Z,15.11
2023-04-21T03:50:21.085Z,15.10
2023-04-21T03:50:52.493Z,15.11
2023-04-21T03:51:23.883Z,15.10
2023-04-21T03:51:55.296Z,15.11
2023-04-21T03:52:26.717Z,15.11
2023-04-21T03:52:58.141Z,15.11
2023-04-21T03:53:29.555Z,15.11
2023-04-21T03:54:00.971Z,15.11
2023-04-21T03:54:32.391Z,15.10
2023-04-21T03:55:03.779Z,15.10
2023-04-21T03:55:35.182Z,15.10
2023-04-21T03:56:06.590Z,15.09
2023-04-21T03:56:38.013Z,15.10
2023-04-21T03:57:09.398Z,15.09
2023-04-21T03:57:40.861Z,15.09
2023-04-21T03:58:12.288Z,15.09
2023-04-21T03:58:43.702Z,15.08
2023-04-21T03:59:15.107Z,15.08
2023-04-21T03:59:46.519Z,15.09
2023-04-21T04:00:17.946Z,15.09
2023-04-21T04:00:49.364Z,15.08
2023-04-21T04:01:20.780Z,15.08
2023-04-21T04:01:52.246Z,15.09
2023-04-21T04:02:23.762Z,15.08
2023-04-21T04:02:55.497Z,15.08
2023-04-21T04:03:27.176Z,15.09
2023-04-21T04:03:58.901Z,15.08
2023-04-21T04:04:30.740Z,15.08
2023-04-21T04:05:02.430Z,15.08
2023-04-21T04:05:33.923Z,15.08
2023-04-21T04:06:05.347Z,15.09
2023-04-21T04:06:36.761Z,15.08
2023-04-21T04:07:08.166Z,15.08
2023-04-21T04:07:39.575Z,15.08
2023-04-21T04:08:11.027Z,15.09
2023-04-21T04:08:42.441Z,15.08
2023-04-21T04:09:13.845Z,15.08
2023-04-21T04:09:45.255Z,15.08
2023-04-21T04:10:16.675Z,15.08
2023-04-21T04:10:48.076Z,15.08
2023-04-21T04:11:19.480Z,15.08
2023-04-21T04:11:50.898Z,15.07
2023-04-21T04:12:22.310Z,15.08
2023-04-21T04:12:53.723Z,15.08
2023-04-21T04:13:25.176Z,15.08
2023-04-21T04:13:56.587Z,15.07
2023-04-21T04:14:27.970Z,15.07
2023-04-21T04:14:59.380Z,15.07
2023-04-21T04:15:30.793Z,15.08
2023-04-21T04:16:02.282Z,15.07
2023-04-21T04:16:33.768Z,15.06
2023-04-21T04:17:05.241Z,15.06
2023-04-21T04:17:36.678Z,15.07
2023-04-21T04:18:08.164Z,15.07
2023-04-21T04:18:39.600Z,15.06
2023-04-21T04:19:11.386Z,15.06
2023-04-21T04:19:42.797Z,15.06
2023-04-21T04:20:14.208Z,15.07
2023-04-21T04:20:45.618Z,15.06
2023-04-21T04:21:17.027Z,15.06
2023-04-21T04:21:49.179Z,15.07
2023-04-21T04:22:20.745Z,15.07
2023-04-21T04:22:52.153Z,15.05
2023-04-21T04:23:23.565Z,15.06
2023-04-21T04:23:54.972Z,15.06
2023-04-21T04:24:26.377Z,15.05
2023-04-21T04:24:57.762Z,15.05
2023-04-21T04:25:29.168Z,15.06
2023-04-21T04:26:00.579Z,15.06
2023-04-21T04:26:31.985Z,15.04
2023-04-21T04:27:03.390Z,15.05
2023-04-21T04:27:34.798Z,15.05
2023-04-21T04:28:06.210Z,15.05
2023-04-21T04:28:37.644Z,15.05
2023-04-21T04:29:09.096Z,15.04
2023-04-21T04:29:40.499Z,15.05
2023-04-21T04:30:11.910Z,15.05
2023-04-21T04:30:43.320Z,15.03
2023-04-21T04:31:14.746Z,15.05
2023-04-21T04:31:46.237Z,15.05
2023-04-21T04:32:17.669Z,15.05
2023-04-21T04:32:49.120Z,15.04
2023-04-21T04:33:20.522Z,15.03
2023-04-21T04:33:54.679Z,15.03
2023-04-21T04:34:26.828Z,15.05
2023-04-21T04:34:58.246Z,15.05
2023-04-21T04:35:29.674Z,15.04
2023-04-21T04:36:01.061Z,15.03
2023-04-21T04:36:32.541Z,15.03
2023-04-21T04:37:03.947Z,15.04
2023-04-21T04:37:35.358Z,15.04
2023-04-21T04:38:06.770Z,15.03
2023-04-21T04:38:38.182Z,15.03
2023-04-21T04:39:09.753Z,15.03
2023-04-21T04:39:41.190Z,15.02
2023-04-21T04:40:12.616Z,15.02
2023-04-21T04:40:44.007Z,15.03
2023-04-21T04:41:15.425Z,15.03
2023-04-21T04:41:46.822Z,15.02
2023-04-21T04:42:18.210Z,15.03
2023-04-21T04:42:49.602Z,15.02
2023-04-21T04:43:20.991Z,15.03
2023-04-21T04:43:52.381Z,15.02
2023-04-21T04:44:23.836Z,15.02
2023-04-21T04:44:55.262Z,15.01
2023-04-21T04:45:26.672Z,15.03
2023-04-21T04:45:58.069Z,15.02
2023-04-21T04:46:29.497Z,15.02
2023-04-21T04:47:00.998Z,15.03
2023-04-21T04:47:32.489Z,15.02
2023-04-21T04:48:03.935Z,15.02
2023-04-21T04:48:35.430Z,15.03
2023-04-21T04:49:06.849Z,15.02
2023-04-21T04:49:38.267Z,15.02
2023-04-21T04:50:09.702Z,15.02
2023-04-21T04:50:41.135Z,15.02
2023-04-21T04:51:12.554Z,15.03
2023-04-21T04:51:43.962Z,15.03
2023-04-21T04:52:15.370Z,15.02
2023-04-21T04:52:46.784Z,15.01
2023-04-21T04:53:18.195Z,15.02
2023-04-21T04:53:49.608Z,15.00
2023-04-21T04:54:21.199Z,15.02
2023-04-21T04:54:52.826Z,15.02
2023-04-21T04:55:24.270Z,15.01
2023-04-21T04:55:55.677Z,15.02
2023-04-21T04:56:27.091Z,15.02
2023-04-21T04:56:58.510Z,15.02
2023-04-21T04:57:29.935Z,15.00
2023-04-21T04:58:01.336Z,15.01
2023-04-21T04:58:32.760Z,15.01
2023-04-21T04:59:04.187Z,15.02
2023-04-21T04:59:35.647Z,15.02
2023-04-21T05:00:07.067Z,15.02
2023-04-21T05:00:38.472Z,15.01
2023-04-21T05:01:09.890Z,15.01
2023-04-21T05:01:41.314Z,15.00
2023-04-21T05:02:12.900Z,15.01
2023-04-21T05:02:44.613Z,15.01
2023-04-21T05:03:16.375Z,15.01
2023-04-21T05:03:48.067Z,15.01
2023-04-21T05:04:20.282Z,15.01
2023-04-21T05:04:52.417Z,15.02
2023-04-21T05:05:23.894Z,15.00
2023-04-21T05:05:55.392Z,15.02
2023-04-21T05:06:26.798Z,15.03
2023-04-21T05:06:58.210Z,15.01
2023-04-21T05:07:29.627Z,15.00
2023-04-21T05:08:01.025Z,15.00
2023-04-21T05:08:32.446Z,15.00
2023-04-21T05:09:03.858Z,15.00
2023-04-21T05:09:35.278Z,15.00
2023-04-21T05:10:06.720Z,15.01
2023-04-21T05:10:38.136Z,15.00
2023-04-21T05:11:09.631Z,15.01
2023-04-21T05:11:41.103Z,15.01
2023-04-21T05:12:12.568Z,15.01
2023-04-21T05:12:43.964Z,15.00
2023-04-21T05:13:15.385Z,15.01
2023-04-21T05:13:46.787Z,15.01
2023-04-21T05:14:18.412Z,15.01
2023-04-21T05:14:50.004Z,15.00
2023-04-21T05:15:21.423Z,14.99
2023-04-21T05:15:52.851Z,15.01
2023-04-21T05:16:24.397Z,15.00
2023-04-21T05:16:55.879Z,15.00
2023-04-21T05:17:27.419Z,14.99
2023-04-21T05:17:58.932Z,15.01
2023-04-21T05:18:30.350Z,15.00
2023-04-21T05:19:01.752Z,15.00
2023-04-21T05:19:33.170Z,15.00
2023-04-21T05:20:04.581Z,15.00
2023-04-21T05:20:35.987Z,15.01
2023-04-21T05:21:07.394Z,15.01
2023-04-21T05:21:38.828Z,15.00
2023-04-21T05:22:10.249Z,15.01
2023-04-21T05:22:41.671Z,15.01
2023-04-21T05:23:13.093Z,15.01
2023-04-21T05:23:44.471Z,15.01
2023-04-21T05:24:15.870Z,15.01
2023-04-21T05:24:47.283Z,15.01
2023-04-21T05:25:18.680Z,15.01
2023-04-21T05:25:50.095Z,15.01
2023-04-21T05:26:21.496Z,15.00
2023-04-21T05:26:52.925Z,15.01
2023-04-21T05:27:24.334Z,15.01
2023-04-21T05:27:55.739Z,15.01
2023-04-21T05:28:27.140Z,15.00
2023-04-21T05:28:58.568Z,15.00
2023-04-21T05:29:30.005Z,15.01
2023-04-21T05:30:01.504Z,15.01
2023-04-21T05:30:32.910Z,15.01
2023-04-21T05:31:04.385Z,15.01
2023-04-21T05:31:35.823Z,15.01
2023-04-21T05:32:07.374Z,15.01
2023-04-21T05:32:38.851Z,15.01
2023-04-21T05:33:10.372Z,15.00
2023-04-21T05:33:41.798Z,15.01
2023-04-21T05:34:13.225Z,15.03
2023-04-21T05:34:44.646Z,15.01
2023-04-21T05:35:16.066Z,15.00
2023-04-21T05:35:47.457Z,15.00
2023-04-21T05:36:18.883Z,15.01
2023-04-21T05:36:50.299Z,15.01
2023-04-21T05:37:21.741Z,15.00
2023-04-21T05:37:53.157Z,15.01
2023-04-21T05:38:24.579Z,15.01
2023-04-21T05:38:55.985Z,15.00
2023-04-21T05:39:27.401Z,15.00
2023-04-21T05:39:58.814Z,15.01
2023-04-21T05:40:30.243Z,15.02
2023-04-21T05:41:01.684Z,15.00
2023-04-21T05:41:33.105Z,15.01
2023-04-21T05:42:04.556Z,15.01
2023-04-21T05:42:35.969Z,15.01
2023-04-21T05:43:07.411Z,15.01
2023-04-21T05:43:38.819Z,15.00
2023-04-21T05:44:10.224Z,15.02
2023-04-21T05:44:41.632Z,15.01
2023-04-21T05:45:13.042Z,15.01
2023-04-21T05:45:44.575Z,15.01
2023-04-21T05:46:16.087Z,15.00
2023-04-21T05:46:47.542Z,15.00
2023-04-21T05:47:18.949Z,15.01
2023-04-21T05:47:50.437Z,15.01
2023-04-21T05:48:21.946Z,15.01
2023-04-21T05:48:53.367Z,15.02
2023-04-21T05:49:25.290Z,15.01
2023-04-21T05:49:57.307Z,15.02
2023-04-21T05:50:32.095Z,15.02
2023-04-21T05:51:03.739Z,15.02
2023-04-21T05:51:35.595Z,15.01
2023-04-21T05:52:07.297Z,15.02
2023-04-21T05:52:38.758Z,15.02
2023-04-21T05:53:10.172Z,15.02
2023-04-21T05:53:41.615Z,15.00
2023-04-21T05:54:13.036Z,15.01
2023-04-21T05:54:44.454Z,15.02
2023-04-21T05:55:15.902Z,15.02
2023-04-21T05:55:47.325Z,15.01
2023-04-21T05:56:18.742Z,15.01
2023-04-21T05:56:50.139Z,15.02
2023-04-21T05:57:21.540Z,15.01
2023-04-21T05:57:52.946Z,15.02
2023-04-21T05:58:24.348Z,15.01
2023-04-21T05:58:55.827Z,15.02
2023-04-21T05:59:27.222Z,15.02
2023-04-21T05:59:58.632Z,15.01
2023-04-21T06:00:30.171Z,15.01
2023-04-21T06:01:01.639Z,15.01
2023-04-21T06:01:33.054Z,15.02
2023-04-21T06:02:04.523Z,15.01
2023-04-21T06:02:36.302Z,15.02
2023-04-21T06:03:07.968Z,15.02
2023-04-21T06:03:39.915Z,15.01
2023-04-21T06:04:11.567Z,15.01
2023-04-21T06:04:43.359Z,15.01
2023-04-21T06:05:14.998Z,15.01
2023-04-21T06:05:46.468Z,15.02
2023-04-21T06:06:17.864Z,15.02
2023-04-21T06:06:49.507Z,15.02
2023-04-21T06:07:21.846Z,15.03
2023-04-21T06:07:53.806Z,15.00
2023-04-21T06:08:25.241Z,15.02
2023-04-21T06:08:56.811Z,15.01
2023-04-21T06:09:28.281Z,15.01
2023-04-21T06:09:59.843Z,15.01
2023-04-21T06:10:31.626Z,15.02
2023-04-21T06:11:03.054Z,15.02
2023-04-21T06:11:34.446Z,15.02
2023-04-21T06:12:05.873Z,15.02
2023-04-21T06:12:37.307Z,15.03
2023-04-21T06:13:08.751Z,15.03
2023-04-21T06:13:42.280Z,15.02
2023-04-21T06:14:14.922Z,15.03
2023-04-21T06:14:46.373Z,15.03
2023-04-21T06:15:19.213Z,15.04
2023-04-21T06:15:50.736Z,15.04
2023-04-21T06:16:22.415Z,15.04
2023-04-21T06:16:53.853Z,15.03
2023-04-21T06:17:25.377Z,15.05
2023-04-21T06:17:56.907Z,15.03
2023-04-21T06:18:28.402Z,15.05
2023-04-21T06:18:59.796Z,15.05
2023-04-21T06:19:31.211Z,15.05
2023-04-21T06:20:02.630Z,15.05
2023-04-21T06:20:34.029Z,15.05
2023-04-21T06:21:05.441Z,15.06
2023-04-21T06:21:36.907Z,15.06
2023-04-21T06:22:10.882Z,15.06
2023-04-21T06:22:42.401Z,15.06
2023-04-21T06:23:13.836Z,15.06
2023-04-21T06:23:45.359Z,15.05
2023-04-21T06:24:16.895Z,15.07
2023-04-21T06:24:48.476Z,15.07
2023-04-21T06:25:19.913Z,15.07
2023-04-21T06:25:51.336Z,15.07
2023-04-21T06:26:22.753Z,15.06
2023-04-21T06:26:54.157Z,15.07
2023-04-21T06:27:25.582Z,15.07
2023-04-21T06:27:57.170Z,15.07
2023-04-21T06:28:28.677Z,15.08
2023-04-21T06:29:00.314Z,15.08
2023-04-21T06:29:33.946Z,15.08
2023-04-21T06:30:05.472Z,15.08
2023-04-21T06:30:37.171Z,15.10
2023-04-21T06:31:10.901Z,15.10
2023-04-21T06:31:42.575Z,15.08
2023-04-21T06:32:14.176Z,15.09
2023-04-21T06:32:45.967Z,15.09
2023-04-21T06:33:17.679Z,15.10
2023-04-21T06:33:49.301Z,15.10
2023-04-21T06:34:21.095Z,15.11
2023-04-21T06:34:52.869Z,15.12
2023-04-21T06:35:24.449Z,15.12
2023-04-21T06:35:56.009Z,15.12
2023-04-21T06:36:27.520Z,15.12
2023-04-21T06:36:58.945Z,15.12
2023-04-21T06:37:30.442Z,15.11
2023-04-21T06:38:01.893Z,15.12
2023-04-21T06:38:33.314Z,15.12
2023-04-21T06:39:04.747Z,15.13
2023-04-21T06:39:36.329Z,15.12
2023-04-21T06:40:07.746Z,15.13
2023-04-21T06:40:39.241Z,15.13
2023-04-21T06:41:10.768Z,15.13
2023-04-21T06:41:42.384Z,15.14
2023-04-21T06:42:13.821Z,15.14
2023-04-21T06:42:45.355Z,15.14
2023-04-21T06:43:16.763Z,15.14
2023-04-21T06:43:48.339Z,15.13
2023-04-21T06:44:20.030Z,15.14
2023-04-21T06:44:51.687Z,15.14
2023-04-21T06:45:23.127Z,15.15
2023-04-21T06:45:54.540Z,15.14